Time;durP1;ratioP1;P1;durP2;ratioP2;P2;SDS_P1;SDS_P2;PMS_P1;PMS_P2;Temp;Humidity;BMP_temperature;BMP_pressure;BME280_temperature;BME280_humidity;BME280_pressure;Samples;Min_cycle;Max_cycle;Signal;HPM_P1;HPM_P2
2022/05/09 00:02:22;;;;;;;1.45;1.35;;;8.40;99.90;;;;;;5068353;28;20094;-81
2022/05/09 00:04:48;;;;;;;1.27;1.17;;;8.40;99.90;;;;;;5061435;28;20665;-81
2022/05/09 00:07:13;;;;;;;4.47;2.05;;;8.40;99.90;;;;;;5048117;28;20045;-81
2022/05/09 00:09:39;;;;;;;1.77;1.67;;;8.40;99.90;;;;;;5048392;28;20041;-81
2022/05/09 00:12:05;;;;;;;6.53;2.22;;;8.40;99.90;;;;;;5047561;28;20451;-82
2022/05/09 00:14:30;;;;;;;12.20;2.47;;;8.40;99.90;;;;;;5047180;28;20041;-81
2022/05/09 00:16:57;;;;;;;5.25;2.92;;;8.40;99.90;;;;;;5048497;28;20061;-81
2022/05/09 00:19:22;;;;;;;1.33;1.25;;;8.40;99.90;;;;;;5047460;28;20045;-81
2022/05/09 00:21:50;;;;;;;5.88;2.47;;;8.40;99.90;;;;;;5047056;28;20391;-81
2022/05/09 00:24:17;;;;;;;4.13;2.35;;;8.30;99.90;;;;;;5047567;28;20556;-81
2022/05/09 00:26:44;;;;;;;3.63;2.72;;;8.30;99.90;;;;;;5047968;28;20120;-81
2022/05/09 00:29:11;;;;;;;3.08;1.65;;;8.30;99.90;;;;;;5046829;28;20131;-81
2022/05/09 00:31:38;;;;;;;5.28;3.03;;;8.30;99.90;;;;;;5047308;28;20045;-81
2022/05/09 00:34:04;;;;;;;2.92;1.80;;;8.30;99.90;;;;;;5047774;28;20044;-81
2022/05/09 00:36:31;;;;;;;4.25;2.20;;;8.30;99.90;;;;;;5048100;28;20120;-81
2022/05/09 00:38:58;;;;;;;14.13;3.15;;;8.30;99.90;;;;;;5046974;28;20116;-81
2022/05/09 00:41:40;;;;;;;11.93;2.65;;;8.20;99.90;;;;;;5047236;28;20045;-81
2022/05/09 00:44:12;;;;;;;3.10;2.03;;;8.20;99.90;;;;;;5045498;28;20053;-81
2022/05/09 00:46:40;;;;;;;7.10;2.35;;;8.20;99.90;;;;;;5056464;28;20045;-82
2022/05/09 00:49:16;;;;;;;2.17;2.05;;;8.20;99.90;;;;;;5067019;28;20052;-81
2022/05/09 00:51:46;;;;;;;4.82;2.00;;;8.20;99.90;;;;;;5066872;28;20051;-81
2022/05/09 00:54:12;;;;;;;5.00;2.47;;;8.10;99.90;;;;;;5066069;28;20099;-81
2022/05/09 00:56:52;;;;;;;12.48;3.08;;;8.10;99.90;;;;;;5067047;28;20072;-81
2022/05/09 00:59:19;;;;;;;2.55;2.40;;;8.20;99.90;;;;;;5066089;28;20414;-81
2022/05/09 01:01:47;;;;;;;3.03;2.20;;;8.10;99.90;;;;;;5067259;28;20086;-82
2022/05/09 01:04:21;;;;;;;1.75;1.63;;;8.10;99.90;;;;;;5058803;28;20041;-81
2022/05/09 01:06:47;;;;;;;10.73;2.63;;;8.10;99.90;;;;;;5047014;28;20123;-82
2022/05/09 01:09:14;;;;;;;12.80;4.07;;;8.00;99.90;;;;;;5046654;28;20041;-81
2022/05/09 01:11:43;;;;;;;3.28;2.25;;;8.00;99.90;;;;;;5047021;28;20067;-81
2022/05/09 01:14:17;;;;;;;4.05;2.17;;;8.00;99.90;;;;;;5044493;28;20045;-81
2022/05/09 01:16:43;;;;;;;9.40;2.50;;;8.00;99.90;;;;;;5047012;28;20051;-80
2022/05/09 01:19:28;;;;;;;3.00;2.67;;;8.00;99.90;;;;;;5046584;28;20040;-81
2022/05/09 01:21:54;;;;;;;5.07;1.80;;;8.00;99.90;;;;;;5045411;28;20060;-81
2022/05/09 01:24:22;;;;;;;3.90;2.78;;;8.00;99.90;;;;;;5046550;28;20495;-82
2022/05/09 01:26:49;;;;;;;7.65;2.13;;;7.90;99.90;;;;;;5046786;28;20052;-81
2022/05/09 01:29:35;;;;;;;1.85;1.75;;;7.90;99.90;;;;;;5045674;28;20439;-81
2022/05/09 01:32:02;;;;;;;39.65;2.38;;;7.90;99.90;;;;;;5045168;28;20075;-80
2022/05/09 01:34:30;;;;;;;2.67;2.13;;;7.90;99.90;;;;;;5047199;28;20064;-81
2022/05/09 01:37:00;;;;;;;7.28;3.55;;;7.80;99.90;;;;;;5045622;28;20051;-81
2022/05/09 01:39:26;;;;;;;15.02;2.45;;;7.90;99.90;;;;;;5045563;28;20041;-80
2022/05/09 01:41:52;;;;;;;14.85;1.85;;;7.80;99.90;;;;;;5046565;28;20103;-81
2022/05/09 01:44:18;;;;;;;2.25;2.05;;;7.80;99.90;;;;;;5044182;28;20048;-81
2022/05/09 01:49:30;;;;;;;5.43;1.88;;;7.80;99.90;;;;;;5066597;28;20052;-81
2022/05/09 01:51:58;;;;;;;4.00;2.33;;;7.90;99.90;;;;;;5066781;28;20083;-81
2022/05/09 01:54:23;;;;;;;2.67;2.35;;;7.90;99.90;;;;;;5066189;28;20048;-81
2022/05/09 01:56:49;;;;;;;4.95;3.50;;;7.90;99.90;;;;;;5058945;28;20045;-81
2022/05/09 01:59:15;;;;;;;2.88;2.15;;;7.90;99.90;;;;;;5044910;28;20124;-81
2022/05/09 02:01:47;;;;;;;2.00;1.90;;;7.80;99.90;;;;;;5046483;28;20040;-81
2022/05/09 02:04:14;;;;;;;8.63;2.75;;;7.90;99.90;;;;;;5045882;28;20499;-81
2022/05/09 02:06:40;;;;;;;6.70;2.75;;;7.80;99.90;;;;;;5045120;28;21179;-81
2022/05/09 02:09:06;;;;;;;1.92;1.70;;;7.90;99.90;;;;;;5045519;28;20546;-80
2022/05/09 02:11:32;;;;;;;4.65;2.25;;;7.80;99.90;;;;;;5046252;28;20041;-81
2022/05/09 02:13:58;;;;;;;3.10;2.63;;;7.80;99.90;;;;;;5045754;28;20041;-81
2022/05/09 02:16:24;;;;;;;10.38;2.28;;;7.80;99.90;;;;;;5046233;28;20086;-81
2022/05/09 02:18:49;;;;;;;7.68;2.58;;;7.80;99.90;;;;;;5045897;28;20128;-81
2022/05/09 02:21:15;;;;;;;9.98;2.15;;;7.80;99.90;;;;;;5045934;28;20037;-80
2022/05/09 02:23:42;;;;;;;6.22;3.13;;;7.70;99.90;;;;;;5045919;28;20391;-80
2022/05/09 02:26:08;;;;;;;4.97;2.53;;;7.70;99.90;;;;;;5045789;28;20048;-81
2022/05/09 02:28:34;;;;;;;3.55;2.58;;;7.70;99.90;;;;;;5045080;28;20048;-81
2022/05/09 02:30:59;;;;;;;5.55;3.10;;;7.70;99.90;;;;;;5046492;28;20044;-81
2022/05/09 02:33:25;;;;;;;2.30;1.98;;;7.70;99.90;;;;;;5045481;28;20402;-81
2022/05/09 02:35:50;;;;;;;4.10;2.25;;;7.70;99.90;;;;;;5045958;28;20052;-81
2022/05/09 02:38:17;;;;;;;7.25;3.42;;;7.60;99.90;;;;;;5044541;28;20053;-81
2022/05/09 02:40:42;;;;;;;22.15;2.67;;;7.60;99.90;;;;;;5045760;28;20045;-81
2022/05/09 02:43:08;;;;;;;9.93;2.60;;;7.60;99.90;;;;;;5044754;28;20045;-81
2022/05/09 02:45:33;;;;;;;3.78;2.22;;;7.60;99.90;;;;;;5047314;28;20044;-80
2022/05/09 02:47:59;;;;;;;2.25;1.88;;;7.60;99.90;;;;;;5066176;28;20040;-81
2022/05/09 02:50:26;;;;;;;16.77;2.97;;;7.60;99.90;;;;;;5065185;28;20117;-82
2022/05/09 02:52:54;;;;;;;4.03;1.98;;;7.60;99.90;;;;;;5065564;28;20498;-82
2022/05/09 02:55:24;;;;;;;4.72;2.83;;;7.60;99.90;;;;;;5064758;28;20048;-82
2022/05/09 02:57:50;;;;;;;3.42;1.42;;;7.60;99.90;;;;;;5063526;28;20048;-82
2022/05/09 03:00:19;;;;;;;21.55;2.60;;;7.60;99.90;;;;;;5049440;28;20110;-82
2022/05/09 03:04:38;;;;;;;14.82;2.45;;;7.70;99.90;;;;;;5045513;28;20033;-81
2022/05/09 03:05:32;;;;;;;7.45;3.13;;;7.60;99.90;;;;;;5044124;28;20506;-81
2022/05/09 03:07:58;;;;;;;6.45;2.25;;;7.60;99.90;;;;;;5044395;28;20045;-81
2022/05/09 03:10:24;;;;;;;3.50;2.67;;;7.60;99.90;;;;;;5045590;28;20049;-81
2022/05/09 03:12:50;;;;;;;3.58;2.13;;;7.60;99.90;;;;;;5043334;28;20068;-80
2022/05/09 03:15:17;;;;;;;12.45;2.50;;;7.50;99.90;;;;;;5031282;28;20037;-81
2022/05/09 03:17:42;;;;;;;7.50;3.13;;;7.50;99.90;;;;;;5049372;28;20450;-81
2022/05/09 03:20:08;;;;;;;2.38;1.85;;;7.50;99.90;;;;;;5048825;28;20052;-81
2022/05/09 03:22:34;;;;;;;7.82;2.38;;;7.50;99.90;;;;;;5048821;28;20406;-81
2022/05/09 03:24:59;;;;;;;3.67;2.75;;;7.50;99.90;;;;;;5049158;28;20120;-81
2022/05/09 03:27:25;;;;;;;3.05;2.33;;;7.50;99.90;;;;;;5048387;28;20076;-80
2022/05/09 03:29:52;;;;;;;2.67;1.40;;;7.50;99.90;;;;;;5049024;28;20044;-81
2022/05/09 03:32:18;;;;;;;2.50;2.30;;;7.50;99.90;;;;;;5030671;28;20565;-81
2022/05/09 03:34:44;;;;;;;3.97;2.20;;;7.40;99.90;;;;;;5048864;28;20043;-81
2022/05/09 03:37:10;;;;;;;2.83;1.77;;;7.40;99.90;;;;;;5048518;28;20045;-81
2022/05/09 03:39:36;;;;;;;2.45;2.20;;;7.40;99.90;;;;;;5047353;28;20055;-80
2022/05/09 03:42:02;;;;;;;3.45;2.50;;;7.30;99.90;;;;;;5047142;28;20041;-81
2022/05/09 03:44:27;;;;;;;8.88;2.33;;;7.30;99.90;;;;;;5030385;28;20053;-81
2022/05/09 03:46:53;;;;;;;10.70;2.90;;;7.30;99.90;;;;;;5061050;28;20398;-81
2022/05/09 03:49:19;;;;;;;7.90;2.55;;;7.30;99.90;;;;;;5067978;28;20056;-81
2022/05/09 03:51:45;;;;;;;3.35;2.85;;;7.30;99.90;;;;;;5065014;28;20181;-81
2022/05/09 03:54:11;;;;;;;5.93;2.47;;;7.30;99.90;;;;;;5048010;28;20469;-81
2022/05/09 03:56:37;;;;;;;3.78;2.80;;;7.20;99.90;;;;;;5048512;28;20794;-81
2022/05/09 03:59:02;;;;;;;2.97;2.60;;;7.20;99.90;;;;;;5045749;28;20048;-81
2022/05/09 04:01:28;;;;;;;3.08;2.65;;;7.20;99.90;;;;;;5048789;28;20037;-81
2022/05/09 04:03:53;;;;;;;2.80;1.73;;;7.20;99.90;;;;;;5048026;28;20098;-81
2022/05/09 04:06:19;;;;;;;4.32;2.75;;;7.20;99.90;;;;;;5048139;28;20099;-81
2022/05/09 04:08:45;;;;;;;7.88;2.90;;;7.10;99.90;;;;;;5047929;28;20041;-81
2022/05/09 04:11:10;;;;;;;21.63;2.83;;;7.10;99.90;;;;;;5046553;28;20744;-81
2022/05/09 04:13:36;;;;;;;3.35;2.95;;;7.10;99.90;;;;;;5047074;28;20174;-80
2022/05/09 04:18:46;;;;;;;5.88;3.45;;;7.10;99.90;;;;;;5047933;28;20201;-81
2022/05/09 04:21:14;;;;;;;4.68;2.53;;;7.20;99.90;;;;;;5047325;28;20131;-81
2022/05/09 04:23:40;;;;;;;3.33;3.03;;;7.10;99.90;;;;;;5048147;28;20505;-81
2022/05/09 04:26:06;;;;;;;6.57;3.55;;;7.10;99.90;;;;;;5046309;28;20500;-81
2022/05/09 04:28:32;;;;;;;3.40;2.85;;;7.20;99.90;;;;;;5046885;28;20116;-82
2022/05/09 04:30:59;;;;;;;2.67;2.47;;;7.10;99.90;;;;;;5047930;28;20606;-81
2022/05/09 04:33:25;;;;;;;7.25;1.95;;;7.10;99.90;;;;;;5046879;28;20052;-81
2022/05/09 04:35:51;;;;;;;7.93;2.92;;;7.10;99.90;;;;;;5047941;28;20045;-81
2022/05/09 04:38:22;;;;;;;8.18;2.88;;;7.10;99.90;;;;;;5047351;28;20037;-81
2022/05/09 04:40:52;;;;;;;2.92;2.35;;;7.10;99.90;;;;;;5047223;28;20135;-81
2022/05/09 04:43:20;;;;;;;7.40;3.10;;;7.10;99.90;;;;;;5044896;28;20480;-81
2022/05/09 04:45:46;;;;;;;3.83;2.95;;;7.10;99.90;;;;;;5050275;28;20399;-81
2022/05/09 04:48:12;;;;;;;8.80;4.30;;;7.10;99.90;;;;;;5067070;28;20097;-80
2022/05/09 04:50:37;;;;;;;1.95;1.77;;;7.10;99.90;;;;;;5055382;28;20511;-81
2022/05/09 04:53:03;;;;;;;4.97;4.07;;;7.20;99.90;;;;;;5045734;28;20044;-82
2022/05/09 04:55:29;;;;;;;2.08;1.67;;;7.20;99.90;;;;;;5047622;28;20102;-81
2022/05/09 04:57:56;;;;;;;12.25;4.40;;;7.30;99.90;;;;;;5046062;28;20037;-81
2022/05/09 05:00:26;;;;;;;2.45;1.95;;;7.30;99.90;;;;;;5046849;28;20049;-81
2022/05/09 05:02:53;;;;;;;7.40;2.22;;;7.30;99.90;;;;;;5046047;28;20077;-81
2022/05/09 05:05:20;;;;;;;4.75;3.05;;;7.40;99.90;;;;;;5045081;28;20124;-81
2022/05/09 05:07:45;;;;;;;7.88;2.88;;;7.50;99.90;;;;;;5046925;28;20432;-80
2022/05/09 05:10:12;;;;;;;5.15;3.45;;;7.50;99.90;;;;;;5046383;28;20052;-81
2022/05/09 05:12:38;;;;;;;4.97;3.50;;;7.50;99.90;;;;;;5045379;28;20075;-81
2022/05/09 05:15:04;;;;;;;6.13;2.15;;;7.50;99.90;;;;;;5046378;28;20483;-81
2022/05/09 05:17:30;;;;;;;11.43;4.22;;;7.60;99.90;;;;;;5047102;28;20090;-81
2022/05/09 05:19:55;;;;;;;2.83;2.63;;;7.60;99.90;;;;;;5048077;28;20044;-82
2022/05/09 05:22:23;;;;;;;11.20;3.53;;;7.60;99.90;;;;;;5046474;28;20043;-83
2022/05/09 05:24:52;;;;;;;4.03;2.60;;;7.60;99.90;;;;;;5041664;28;20095;-81
2022/05/09 05:27:21;;;;;;;4.72;2.30;;;7.70;99.90;;;;;;5044845;28;20116;-81
2022/05/09 05:29:47;;;;;;;5.63;5.05;;;7.70;99.90;;;;;;5046127;28;20090;-81
2022/05/09 05:32:17;;;;;;;4.88;3.05;;;7.70;99.90;;;;;;5028360;28;20049;-81
2022/05/09 05:34:43;;;;;;;3.55;3.25;;;7.80;99.90;;;;;;5046116;28;20041;-81
2022/05/09 05:37:08;;;;;;;9.35;3.78;;;7.80;99.90;;;;;;5044700;28;20098;-81
2022/05/09 05:39:36;;;;;;;9.90;2.78;;;7.90;99.90;;;;;;5045984;28;20037;-80
2022/05/09 05:42:04;;;;;;;6.43;3.85;;;7.90;99.90;;;;;;5044603;28;20049;-81
2022/05/09 05:44:29;;;;;;;3.30;2.58;;;7.90;99.90;;;;;;5047701;28;20064;-80
2022/05/09 05:46:54;;;;;;;4.25;3.20;;;7.90;99.90;;;;;;5061363;28;20044;-80
2022/05/09 05:49:20;;;;;;;3.28;2.47;;;8.00;99.90;;;;;;5039477;28;20049;-81
2022/05/09 05:51:45;;;;;;;8.55;4.70;;;8.00;99.90;;;;;;5034599;28;20041;-80
2022/05/09 05:54:11;;;;;;;2.90;2.70;;;8.00;99.90;;;;;;5045594;28;20037;-80
2022/05/09 05:56:37;;;;;;;9.15;3.42;;;8.10;99.90;;;;;;5045701;28;20491;-80
2022/05/09 05:59:04;;;;;;;4.50;3.53;;;8.10;99.90;;;;;;5044632;28;20037;-81
2022/05/09 06:01:30;;;;;;;2.60;2.28;;;8.20;99.90;;;;;;5043910;28;20128;-80
2022/05/09 06:03:55;;;;;;;4.60;3.45;;;8.20;99.90;;;;;;5043401;28;20523;-80
2022/05/09 06:06:21;;;;;;;3.72;2.88;;;8.20;99.90;;;;;;5039559;28;20042;-80
2022/05/09 06:08:48;;;;;;;5.70;2.90;;;8.30;99.90;;;;;;5042602;28;20041;-81
2022/05/09 06:11:13;;;;;;;3.28;3.08;;;8.30;99.90;;;;;;5041396;28;20045;-80
2022/05/09 06:13:39;;;;;;;5.57;3.42;;;8.40;99.90;;;;;;5044499;28;20517;-80
2022/05/09 06:16:05;;;;;;;5.00;2.78;;;8.40;99.90;;;;;;5044442;28;20087;-80
2022/05/09 06:18:31;;;;;;;3.70;3.33;;;8.40;99.90;;;;;;5060224;28;20087;-80
2022/05/09 06:20:57;;;;;;;5.15;3.80;;;8.50;99.90;;;;;;5066285;28;20045;-80
2022/05/09 06:23:23;;;;;;;3.85;3.47;;;8.50;99.90;;;;;;5065662;28;20041;-80
2022/05/09 06:25:48;;;;;;;3.55;2.70;;;8.50;99.90;;;;;;5065038;28;20044;-80
2022/05/09 06:28:16;;;;;;;4.15;2.33;;;8.60;99.90;;;;;;5064612;28;20055;-80
2022/05/09 06:30:42;;;;;;;4.50;4.10;;;8.60;99.90;;;;;;5044320;28;20048;-80
2022/05/09 06:33:09;;;;;;;5.80;3.30;;;8.70;99.90;;;;;;5042581;28;20041;-80
2022/05/09 06:35:43;;;;;;;8.75;3.88;;;8.70;99.90;;;;;;5041599;28;20448;-81
2022/05/09 06:38:14;;;;;;;7.10;3.45;;;8.80;99.90;;;;;;5045874;28;20102;-81
2022/05/09 06:40:40;;;;;;;6.13;3.75;;;8.90;99.90;;;;;;5046794;28;20056;-81
2022/05/09 06:43:07;;;;;;;3.45;3.25;;;8.90;99.90;;;;;;5043610;28;20045;-80
2022/05/09 06:45:33;;;;;;;3.03;2.75;;;9.00;99.90;;;;;;5044867;28;20138;-80
2022/05/09 06:47:59;;;;;;;17.15;4.63;;;9.00;99.90;;;;;;5044961;28;20502;-80
2022/05/09 06:50:28;;;;;;;7.75;4.32;;;9.10;99.90;;;;;;5044880;28;20056;-79
2022/05/09 06:52:54;;;;;;;3.95;3.15;;;9.10;99.90;;;;;;5048316;28;20077;-81
2022/05/09 06:55:20;;;;;;;2.60;2.00;;;9.20;99.90;;;;;;5046580;28;20134;-81
2022/05/09 06:57:46;;;;;;;4.25;2.70;;;9.20;99.90;;;;;;5046745;28;20380;-81
2022/05/09 07:00:20;;;;;;;16.10;3.20;;;9.20;99.90;;;;;;5045715;28;20041;-80
2022/05/09 07:02:46;;;;;;;4.10;3.65;;;9.30;99.90;;;;;;5047618;28;20124;-80
2022/05/09 07:05:15;;;;;;;3.95;3.55;;;9.40;99.90;;;;;;5041546;28;20370;-81
2022/05/09 07:07:41;;;;;;;5.30;3.28;;;9.40;99.90;;;;;;5046098;28;20052;-81
2022/05/09 07:10:07;;;;;;;4.75;3.15;;;9.40;99.90;;;;;;5040852;28;20123;-80
2022/05/09 07:12:48;;;;;;;4.20;3.88;;;9.50;99.90;;;;;;5045174;28;20041;-81
2022/05/09 07:15:17;;;;;;;6.50;4.20;;;9.60;99.90;;;;;;5036606;28;20036;-80
2022/05/09 07:17:43;;;;;;;8.45;4.13;;;9.60;99.90;;;;;;5041804;28;20399;-80
2022/05/09 07:20:09;;;;;;;3.13;2.85;;;9.70;99.90;;;;;;5046783;28;20049;-80
2022/05/09 07:22:35;;;;;;;8.93;3.67;;;9.70;99.90;;;;;;5048306;28;20033;-82
2022/05/09 07:25:02;;;;;;;4.32;3.20;;;9.80;99.90;;;;;;5048422;28;20099;-83
2022/05/09 07:27:29;;;;;;;7.50;4.05;;;9.80;99.90;;;;;;5046211;28;20084;-83
2022/05/09 07:29:54;;;;;;;19.35;4.03;;;9.90;99.90;;;;;;5044712;28;20069;-81
2022/05/09 07:32:21;;;;;;;8.98;3.83;;;10.00;99.90;;;;;;5047078;28;20558;-87
2022/05/09 07:34:48;;;;;;;4.00;2.90;;;10.10;99.90;;;;;;5046664;28;20057;-90
2022/05/09 07:37:15;;;;;;;2.83;2.60;;;10.10;99.90;;;;;;5046645;28;20083;-87
2022/05/09 07:39:41;;;;;;;9.00;2.83;;;10.20;99.90;;;;;;5047916;28;20045;-87
2022/05/09 07:42:06;;;;;;;23.92;3.70;;;10.30;99.90;;;;;;5045184;28;20041;-88
2022/05/09 07:44:32;;;;;;;7.82;3.83;;;10.40;99.90;;;;;;5029468;28;20091;-88
2022/05/09 07:46:58;;;;;;;16.52;3.53;;;10.40;99.90;;;;;;5059519;28;20032;-86
2022/05/09 07:49:23;;;;;;;4.00;2.70;;;10.40;99.90;;;;;;5065678;28;20060;-87
2022/05/09 07:51:49;;;;;;;8.65;3.20;;;10.50;99.90;;;;;;5066436;28;20072;-89
2022/05/09 07:54:14;;;;;;;3.92;2.92;;;10.50;99.90;;;;;;5065775;28;20114;-88
2022/05/09 07:56:43;;;;;;;9.18;2.70;;;10.60;99.90;;;;;;5048445;28;20094;-89
2022/05/09 07:59:08;;;;;;;5.15;3.58;;;10.60;99.90;;;;;;5049419;28;20052;-89
2022/05/09 08:01:34;;;;;;;9.27;3.60;;;10.60;99.90;;;;;;5041297;28;20048;-89
2022/05/09 08:04:00;;;;;;;34.70;3.53;;;10.60;99.90;;;;;;5038164;28;20429;-88
2022/05/09 08:06:29;;;;;;;11.55;3.97;;;10.70;99.90;;;;;;5037669;28;20565;-85
2022/05/09 08:08:55;;;;;;;6.65;3.25;;;10.70;99.90;;;;;;5054171;28;20387;-91
2022/05/09 08:11:21;;;;;;;13.52;3.22;;;10.80;99.90;;;;;;5055792;28;20051;-85
2022/05/09 08:13:47;;;;;;;4.13;3.03;;;10.80;99.90;;;;;;5054427;28;20048;-84
2022/05/09 08:16:14;;;;;;;6.68;3.00;;;10.90;99.90;;;;;;5034931;28;20124;-83
2022/05/09 08:18:40;;;;;;;6.15;2.55;;;11.00;99.90;;;;;;5056047;28;20041;-84
2022/05/09 08:21:06;;;;;;;6.18;2.97;;;11.00;99.90;;;;;;5047442;28;20049;-85
2022/05/09 08:23:32;;;;;;;6.05;2.75;;;11.10;99.90;;;;;;5046479;28;20384;-84
2022/05/09 08:26:02;;;;;;;9.02;3.28;;;11.10;99.90;;;;;;5049150;28;20047;-84
2022/05/09 08:28:29;;;;;;;12.10;3.22;;;11.10;99.90;;;;;;5052691;28;20040;-85
2022/05/09 08:30:55;;;;;;;12.55;2.78;;;11.20;99.90;;;;;;5054895;28;20028;-84
2022/05/09 08:33:23;;;;;;;2.70;2.45;;;11.20;99.90;;;;;;5055931;28;20349;-85
2022/05/09 08:35:51;;;;;;;5.43;2.70;;;11.30;99.90;;;;;;5054572;28;20049;-84
2022/05/09 08:38:20;;;;;;;3.40;2.58;;;11.40;99.90;;;;;;5052758;28;20045;-86
2022/05/09 08:41:09;;;;;;;5.63;2.53;;;11.50;99.90;;;;;;5056282;28;20390;-84
2022/05/09 08:43:51;;;;;;;6.53;2.72;;;11.50;99.90;;;;;;5051912;28;20479;-85
2022/05/09 08:46:36;;;;;;;2.40;1.77;;;11.60;99.90;;;;;;5036037;28;20066;-84
2022/05/09 08:49:17;;;;;;;3.97;1.77;;;11.70;99.90;;;;;;5017890;28;20049;-84
2022/05/09 08:52:20;;;;;;;7.70;2.13;;;11.80;99.90;;;;;;5034401;28;20492;-84
2022/05/09 08:54:46;;;;;;;;;;;11.80;99.90;;;;;;5040702;28;20091;-85
2022/05/09 08:57:28;;;;;;;2.42;1.77;;;11.90;99.90;;;;;;5037688;28;20004;-85
2022/05/09 09:00:02;;;;;;;2.47;2.25;;;12.00;99.90;;;;;;5040126;28;20057;-85
2022/05/09 09:02:36;;;;;;;11.00;2.90;;;12.10;99.90;;;;;;5041467;28;20572;-85
2022/05/09 09:05:03;;;;;;;3.15;2.20;;;12.10;99.90;;;;;;5044475;28;20045;-85
2022/05/09 09:08:05;;;;;;;6.15;1.45;;;12.20;99.90;;;;;;5046193;28;20128;-85
2022/05/09 09:10:36;;;;;;;1.88;1.73;;;12.20;99.90;;;;;;5037910;28;20041;-86
2022/05/09 09:13:38;;;;;;;3.85;2.13;;;12.30;99.90;;;;;;5035073;28;20041;-86
2022/05/09 09:16:19;;;;;;;8.30;2.13;;;12.40;99.90;;;;;;5037793;28;20033;-85
2022/05/09 09:19:00;;;;;;;2.85;1.33;;;12.50;99.90;;;;;;5040705;28;20068;-84
2022/05/09 09:22:03;;;;;;;4.88;1.95;;;12.60;99.90;;;;;;5035463;28;20045;-85
2022/05/09 09:24:48;;;;;;;13.13;1.88;;;12.70;99.90;;;;;;5053300;28;20045;-85
2022/05/09 09:27:40;;;;;;;3.50;1.98;;;12.80;99.90;;;;;;5052852;28;20051;-85
2022/05/09 09:30:13;;;;;;;1.90;1.75;;;12.90;99.90;;;;;;5052686;28;20131;-84
2022/05/09 09:32:41;;;;;;;2.03;1.85;;;12.90;99.90;;;;;;5050874;28;20029;-85
2022/05/09 09:35:30;;;;;;;1.98;1.60;;;12.90;99.90;;;;;;5052297;28;20055;-85
2022/05/09 09:38:05;;;;;;;3.03;1.33;;;12.90;99.90;;;;;;5054351;28;20040;-84
2022/05/09 09:40:31;;;;;;;6.97;1.08;;;13.00;99.90;;;;;;5053204;28;20044;-85
2022/05/09 09:42:57;;;;;;;2.50;1.67;;;13.10;99.90;;;;;;5054438;28;20040;-84
2022/05/09 09:45:30;;;;;;;3.13;1.50;;;13.10;99.90;;;;;;5053632;28;20116;-84
2022/05/09 09:48:30;;;;;;;4.55;1.30;;;13.20;99.90;;;;;;5052985;28;20119;-86
2022/05/09 09:51:05;;;;;;;2.92;1.83;;;13.20;99.90;;;;;;5013414;28;20135;-85
2022/05/09 09:53:34;;;;;;;11.82;1.63;;;13.30;99.90;;;;;;5054437;28;20052;-84
2022/05/09 09:56:08;;;;;;;5.18;1.02;;;13.40;99.90;;;;;;5043140;28;20515;-84
2022/05/09 09:58:38;;;;;;;2.35;0.82;;;13.50;99.90;;;;;;5039855;28;20048;-86
2022/05/09 10:01:10;;;;;;;2.58;1.20;;;13.50;99.90;;;;;;5040993;28;20060;-85
2022/05/09 10:03:40;;;;;;;1.45;1.30;;;13.60;99.90;;;;;;5043108;28;20048;-86
2022/05/09 10:06:21;;;;;;;1.98;0.88;;;13.70;99.90;;;;;;5044786;28;20032;-80
2022/05/09 10:08:56;;;;;;;1.90;1.08;;;13.70;99.90;;;;;;5028704;28;20048;-80
2022/05/09 10:11:28;;;;;;;0.75;0.75;;;13.80;99.90;;;;;;5024206;28;20500;-83
2022/05/09 10:14:03;;;;;;;1.27;0.88;;;13.80;99.90;;;;;;5025168;28;20041;-83
2022/05/09 10:16:33;;;;;;;2.05;1.00;;;13.90;99.90;;;;;;5029103;28;20045;-84
2022/05/09 10:19:02;;;;;;;0.80;0.80;;;13.90;99.90;;;;;;5044281;28;20101;-83
2022/05/09 10:24:47;;;;;;;1.80;1.33;;;14.00;99.90;;;;;;5040303;28;20099;-84
2022/05/09 10:27:26;;;;;;;1.55;1.02;;;14.00;99.90;;;;;;5039753;28;20091;-82
2022/05/09 10:30:00;;;;;;;3.00;1.65;;;14.10;99.90;;;;;;5025240;28;20055;-88
2022/05/09 10:32:48;;;;;;;1.40;1.27;;;14.20;99.90;;;;;;5044293;28;20526;-88
2022/05/09 10:35:28;;;;;;;3.03;1.08;;;14.20;99.90;;;;;;5046288;28;20491;-88
2022/05/09 10:38:02;;;;;;;4.95;1.25;;;14.20;99.90;;;;;;5048607;28;20052;-88
2022/05/09 10:40:36;;;;;;;1.27;1.10;;;14.30;99.90;;;;;;5045280;28;20045;-88
2022/05/09 10:43:06;;;;;;;9.35;1.45;;;14.30;99.90;;;;;;5055750;28;20124;-88
2022/05/09 10:45:42;;;;;;;1.25;1.15;;;14.30;99.90;;;;;;5054830;28;20052;-87
2022/05/09 10:48:34;;;;;;;0.47;0.47;;;14.40;99.90;;;;;;5068513;28;20044;-88
2022/05/09 10:51:28;;;;;;;1.30;1.20;;;14.40;99.90;;;;;;5034028;28;20045;-89
2022/05/09 10:54:06;;;;;;;7.40;1.63;;;14.40;99.90;;;;;;5055190;28;20045;-89
2022/05/09 10:56:41;;;;;;;5.85;1.60;;;14.40;99.90;;;;;;5053392;28;20577;-89
2022/05/09 10:59:22;;;;;;;1.45;1.10;;;14.40;99.90;;;;;;5047024;28;20550;-88
2022/05/09 11:02:05;;;;;;;2.80;0.98;;;14.50;99.90;;;;;;5044012;28;20053;-84
2022/05/09 11:04:32;;;;;;;1.85;1.40;;;14.50;99.90;;;;;;5046972;28;20120;-83
2022/05/09 11:07:24;;;;;;;1.17;0.73;;;14.50;99.90;;;;;;5044290;28;20076;-85
2022/05/09 11:09:49;;;;;;;3.47;1.13;;;14.60;99.90;;;;;;5048447;28;20052;-85
2022/05/09 11:12:36;;;;;;;1.13;0.82;;;14.60;99.90;;;;;;5044009;28;20053;-85
2022/05/09 11:15:22;;;;;;;6.85;0.98;;;14.70;99.90;;;;;;5038126;28;20059;-86
2022/05/09 11:17:53;;;;;;;3.00;1.75;;;14.70;99.90;;;;;;5046534;28;20456;-86
2022/05/09 11:20:31;;;;;;;2.43;1.43;;;14.70;99.90;;;;;;5046571;28;20522;-86
2022/05/09 11:23:21;;;;;;;4.38;0.85;;;14.70;99.90;;;;;;5042057;28;20079;-88
2022/05/09 11:26:18;;;;;;;1.98;1.85;;;14.70;99.90;;;;;;5045788;28;20102;-86
2022/05/09 11:28:49;;;;;;;2.88;1.50;;;14.80;99.90;;;;;;5046519;28;20043;-87
2022/05/09 11:31:54;;;;;;;0.57;0.57;;;14.80;99.90;;;;;;5047799;28;20048;-87
2022/05/09 11:34:47;;;;;;;5.05;1.92;;;14.90;99.90;;;;;;4969221;28;20053;-88
2022/05/09 11:37:32;;;;;;;2.28;1.30;;;15.00;99.90;;;;;;5042920;28;20044;-88
2022/05/09 11:40:34;;;;;;;2.28;1.42;;;15.00;99.90;;;;;;5038098;28;20076;-88
2022/05/09 11:43:27;;;;;;;2.38;1.63;;;15.00;99.90;;;;;;5047445;28;20124;-88
2022/05/09 11:45:58;;;;;;;5.10;1.23;;;15.00;99.90;;;;;;5032210;28;20143;-88
2022/05/09 11:48:33;;;;;;;2.20;1.45;;;15.00;99.90;;;;;;5029102;28;20040;-87
2022/05/09 11:51:25;;;;;;;3.70;1.65;;;15.10;99.90;;;;;;5060736;28;20052;-89
2022/05/09 11:53:59;;;;;;;1.35;1.25;;;15.10;99.90;;;;;;5035102;28;20040;-88
2022/05/09 11:56:25;;;;;;;3.88;1.13;;;15.20;99.90;;;;;;5046277;28;20445;-90
2022/05/09 11:58:52;;;;;;;5.05;1.10;;;15.30;99.90;;;;;;5028856;28;20041;-87
2022/05/09 12:01:57;;;;;;;2.40;1.50;;;15.40;99.90;;;;;;5031618;28;20098;-87
2022/05/09 12:04:30;;;;;;;1.98;1.23;;;15.50;99.90;;;;;;5046375;28;20547;-87
2022/05/09 12:06:56;;;;;;;1.38;0.98;;;15.60;99.90;;;;;;5045404;28;20052;-87
2022/05/09 12:09:53;;;;;;;2.63;1.50;;;15.60;99.90;;;;;;5046599;28;20044;-86
2022/05/09 12:12:36;;;;;;;1.80;0.98;;;15.70;99.90;;;;;;5045050;28;20118;-87
2022/05/09 12:15:26;;;;;;;1.77;1.02;;;15.70;99.90;;;;;;5028853;28;20037;-87
2022/05/09 12:17:57;;;;;;;1.45;0.95;;;15.70;99.90;;;;;;5036095;28;20072;-86
2022/05/09 12:20:28;;;;;;;4.55;1.02;;;15.70;99.90;;;;;;5045217;28;20053;-87
2022/05/09 12:22:56;;;;;;;8.97;1.97;;;15.70;99.90;;;;;;5044989;28;20064;-87
2022/05/09 12:25:34;;;;;;;2.13;1.25;;;15.70;99.90;;;;;;5052280;28;20090;-86
2022/05/09 12:28:19;;;;;;;2.17;1.52;;;15.70;99.90;;;;;;5025642;28;20120;-86
2022/05/09 12:31:04;;;;;;;4.22;1.63;;;15.70;99.90;;;;;;5057273;28;20036;-86
2022/05/09 12:33:47;;;;;;;1.70;0.93;;;15.60;99.90;;;;;;5066479;28;20045;-76
2022/05/09 12:36:17;;;;;;;4.25;1.17;;;15.60;99.90;;;;;;5046465;28;20044;-87
2022/05/09 12:38:49;;;;;;;3.95;1.25;;;15.60;99.90;;;;;;5045557;28;20044;-86
2022/05/09 12:41:16;;;;;;;;;;;15.70;99.90;;;;;;5044911;28;20114;-87
2022/05/09 12:43:49;;;;;;;1.48;1.10;;;15.70;99.90;;;;;;5047012;28;20014;-86
2022/05/09 12:46:30;;;;;;;1.45;0.85;;;15.90;99.90;;;;;;5047974;28;20191;-87
2022/05/09 12:48:58;;;;;;;0.93;0.93;;;16.00;99.90;;;;;;5045284;28;20052;-88
2022/05/09 12:51:25;;;;;;;1.30;1.20;;;16.00;99.90;;;;;;5044744;28;20076;-87
2022/05/09 12:53:51;;;;;;;1.48;1.20;;;16.00;99.90;;;;;;5045207;28;20044;-86
2022/05/09 12:56:20;;;;;;;1.20;1.10;;;16.00;99.90;;;;;;5027645;28;20066;-86
2022/05/09 12:58:58;;;;;;;3.20;1.90;;;16.00;99.90;;;;;;5046335;28;20103;-87
2022/05/09 13:01:26;;;;;;;1.20;0.80;;;16.10;99.90;;;;;;5046150;28;20645;-87
2022/05/09 13:03:56;;;;;;;6.88;1.83;;;16.20;99.90;;;;;;5045023;28;20134;-87
2022/05/09 13:06:44;;;;;;;2.35;1.40;;;16.20;99.90;;;;;;5045141;28;20550;-87
2022/05/09 13:09:25;;;;;;;6.50;1.30;;;16.30;99.90;;;;;;5045062;28;20128;-87
2022/05/09 13:11:57;;;;;;;1.25;1.00;;;16.40;99.90;;;;;;5044013;28;20045;-88
2022/05/09 13:14:39;;;;;;;2.10;1.20;;;16.40;99.90;;;;;;5044754;28;20048;-86
2022/05/09 13:17:14;;;;;;;1.45;0.95;;;16.50;99.90;;;;;;5044663;28;20049;-87
2022/05/09 13:19:46;;;;;;;1.13;0.82;;;16.50;99.90;;;;;;5018692;28;20056;-87
2022/05/09 13:22:22;;;;;;;1.50;1.40;;;16.50;99.90;;;;;;5045516;28;20053;-87